sensor_id;sensor_type;location;lat;lon;timestamp;P1;durP1;ratioP1;P2;durP2;ratioP2
58244;SDS011;44550;43.864;25.986;2022-10-19T00:02:47;22.10;;;14.85;;
58244;SDS011;44550;43.864;25.986;2022-10-19T00:06:47;21.45;;;13.98;;
58244;SDS011;44550;43.864;25.986;2022-10-19T00:14:48;20.33;;;14.55;;
58244;SDS011;44550;43.864;25.986;2022-10-19T00:18:47;20.65;;;13.15;;
58244;SDS011;44550;43.864;25.986;2022-10-19T00:26:47;21.80;;;13.73;;
58244;SDS011;44550;43.864;25.986;2022-10-19T00:30:49;20.42;;;15.52;;
58244;SDS011;44550;43.864;25.986;2022-10-19T00:34:49;27.30;;;14.43;;
58244;SDS011;44550;43.864;25.986;2022-10-19T00:38:48;25.00;;;15.15;;
58244;SDS011;44550;43.864;25.986;2022-10-19T00:42:52;19.35;;;11.68;;
58244;SDS011;44550;43.864;25.986;2022-10-19T00:46:55;18.35;;;11.20;;
58244;SDS011;44550;43.864;25.986;2022-10-19T00:50:57;24.77;;;14.30;;
58244;SDS011;44550;43.864;25.986;2022-10-19T00:54:57;23.48;;;14.88;;
58244;SDS011;44550;43.864;25.986;2022-10-19T00:58:57;17.27;;;12.50;;
58244;SDS011;44550;43.864;25.986;2022-10-19T01:02:59;15.32;;;11.32;;
58244;SDS011;44550;43.864;25.986;2022-10-19T01:06:59;16.30;;;11.63;;
58244;SDS011;44550;43.864;25.986;2022-10-19T01:11:03;12.48;;;9.48;;
58244;SDS011;44550;43.864;25.986;2022-10-19T01:15:21;15.98;;;10.75;;
58244;SDS011;44550;43.864;25.986;2022-10-19T01:19:38;16.40;;;9.77;;
58244;SDS011;44550;43.864;25.986;2022-10-19T01:28:29;15.00;;;10.63;;
58244;SDS011;44550;43.864;25.986;2022-10-19T01:32:42;20.80;;;10.85;;
58244;SDS011;44550;43.864;25.986;2022-10-19T01:36:58;16.50;;;10.38;;
58244;SDS011;44550;43.864;25.986;2022-10-19T01:41:03;16.90;;;9.88;;
58244;SDS011;44550;43.864;25.986;2022-10-19T01:45:13;17.65;;;10.60;;
58244;SDS011;44550;43.864;25.986;2022-10-19T01:49:18;19.35;;;11.02;;
58244;SDS011;44550;43.864;25.986;2022-10-19T01:53:20;15.48;;;10.30;;
58244;SDS011;44550;43.864;25.986;2022-10-19T01:57:24;17.67;;;10.00;;
58244;SDS011;44550;43.864;25.986;2022-10-19T02:01:26;16.08;;;10.85;;
58244;SDS011;44550;43.864;25.986;2022-10-19T02:05:32;17.08;;;10.25;;
58244;SDS011;44550;43.864;25.986;2022-10-19T02:09:33;11.63;;;7.25;;
58244;SDS011;44550;43.864;25.986;2022-10-19T02:13:33;12.95;;;8.27;;
58244;SDS011;44550;43.864;25.986;2022-10-19T02:17:34;14.98;;;9.07;;
58244;SDS011;44550;43.864;25.986;2022-10-19T02:21:40;14.60;;;9.68;;
58244;SDS011;44550;43.864;25.986;2022-10-19T02:25:40;12.82;;;9.20;;
58244;SDS011;44550;43.864;25.986;2022-10-19T02:33:39;8.45;;;6.30;;
58244;SDS011;44550;43.864;25.986;2022-10-19T02:41:41;9.10;;;6.45;;
58244;SDS011;44550;43.864;25.986;2022-10-19T02:45:46;10.60;;;7.22;;
58244;SDS011;44550;43.864;25.986;2022-10-19T02:49:53;16.60;;;7.97;;
58244;SDS011;44550;43.864;25.986;2022-10-19T02:53:54;14.88;;;7.68;;
58244;SDS011;44550;43.864;25.986;2022-10-19T02:58:00;14.15;;;8.65;;
58244;SDS011;44550;43.864;25.986;2022-10-19T03:01:59;13.07;;;9.65;;
58244;SDS011;44550;43.864;25.986;2022-10-19T03:05:59;16.58;;;11.55;;
58244;SDS011;44550;43.864;25.986;2022-10-19T03:14:00;14.27;;;8.95;;
58244;SDS011;44550;43.864;25.986;2022-10-19T03:21:59;14.18;;;9.63;;
58244;SDS011;44550;43.864;25.986;2022-10-19T03:26:01;17.90;;;10.23;;
58244;SDS011;44550;43.864;25.986;2022-10-19T03:30:05;11.23;;;8.38;;
58244;SDS011;44550;43.864;25.986;2022-10-19T03:34:04;72.05;;;43.25;;
58244;SDS011;44550;43.864;25.986;2022-10-19T03:38:04;21.02;;;14.80;;
58244;SDS011;44550;43.864;25.986;2022-10-19T03:46:04;19.83;;;14.40;;
58244;SDS011;44550;43.864;25.986;2022-10-19T03:50:05;23.02;;;13.63;;
58244;SDS011;44550;43.864;25.986;2022-10-19T03:54:08;17.45;;;14.50;;
58244;SDS011;44550;43.864;25.986;2022-10-19T03:58:12;18.73;;;12.40;;
58244;SDS011;44550;43.864;25.986;2022-10-19T04:02:12;15.95;;;10.52;;
58244;SDS011;44550;43.864;25.986;2022-10-19T04:06:12;15.43;;;10.70;;
58244;SDS011;44550;43.864;25.986;2022-10-19T04:10:18;12.68;;;9.15;;
58244;SDS011;44550;43.864;25.986;2022-10-19T04:14:20;17.38;;;9.25;;
58244;SDS011;44550;43.864;25.986;2022-10-19T04:18:29;15.43;;;8.68;;
58244;SDS011;44550;43.864;25.986;2022-10-19T04:22:29;11.70;;;8.55;;
58244;SDS011;44550;43.864;25.986;2022-10-19T04:26:29;17.02;;;9.32;;
58244;SDS011;44550;43.864;25.986;2022-10-19T04:30:30;17.17;;;10.60;;
58244;SDS011;44550;43.864;25.986;2022-10-19T04:34:30;14.27;;;9.68;;
58244;SDS011;44550;43.864;25.986;2022-10-19T04:38:34;16.48;;;9.60;;
58244;SDS011;44550;43.864;25.986;2022-10-19T04:42:34;21.17;;;13.30;;
58244;SDS011;44550;43.864;25.986;2022-10-19T04:46:40;19.90;;;10.68;;
58244;SDS011;44550;43.864;25.986;2022-10-19T04:50:47;18.98;;;9.82;;
58244;SDS011;44550;43.864;25.986;2022-10-19T04:55:08;14.48;;;10.30;;
58244;SDS011;44550;43.864;25.986;2022-10-19T05:08:04;17.25;;;10.35;;
58244;SDS011;44550;43.864;25.986;2022-10-19T05:12:45;17.05;;;10.98;;
58244;SDS011;44550;43.864;25.986;2022-10-19T05:17:21;17.27;;;11.05;;
58244;SDS011;44550;43.864;25.986;2022-10-19T05:21:48;20.15;;;11.15;;
58244;SDS011;44550;43.864;25.986;2022-10-19T05:26:12;11.20;;;9.27;;
58244;SDS011;44550;43.864;25.986;2022-10-19T05:46:28;18.67;;;9.70;;
58244;SDS011;44550;43.864;25.986;2022-10-19T05:51:15;15.52;;;10.30;;
58244;SDS011;44550;43.864;25.986;2022-10-19T05:55:24;27.30;;;9.48;;
58244;SDS011;44550;43.864;25.986;2022-10-19T06:16:55;16.25;;;8.50;;
58244;SDS011;44550;43.864;25.986;2022-10-19T06:21:17;13.18;;;8.63;;
58244;SDS011;44550;43.864;25.986;2022-10-19T06:26:27;14.70;;;7.25;;
58244;SDS011;44550;43.864;25.986;2022-10-19T06:31:39;12.93;;;8.05;;
58244;SDS011;44550;43.864;25.986;2022-10-19T08:16:23;16.92;;;9.07;;
58244;SDS011;44550;43.864;25.986;2022-10-19T08:20:24;14.85;;;8.68;;
58244;SDS011;44550;43.864;25.986;2022-10-19T08:24:23;15.45;;;9.40;;
58244;SDS011;44550;43.864;25.986;2022-10-19T08:28:23;20.50;;;9.48;;
58244;SDS011;44550;43.864;25.986;2022-10-19T08:32:25;18.63;;;9.38;;
58244;SDS011;44550;43.864;25.986;2022-10-19T08:36:24;9.15;;;7.78;;
58244;SDS011;44550;43.864;25.986;2022-10-19T08:40:27;8.43;;;6.95;;
58244;SDS011;44550;43.864;25.986;2022-10-19T08:44:46;9.18;;;6.45;;
58244;SDS011;44550;43.864;25.986;2022-10-19T08:48:57;13.18;;;6.10;;
58244;SDS011;44550;43.864;25.986;2022-10-19T08:53:00;10.73;;;6.78;;
58244;SDS011;44550;43.864;25.986;2022-10-19T08:57:05;8.88;;;6.57;;
58244;SDS011;44550;43.864;25.986;2022-10-19T09:01:14;13.32;;;6.18;;
58244;SDS011;44550;43.864;25.986;2022-10-19T09:05:27;13.65;;;6.82;;
58244;SDS011;44550;43.864;25.986;2022-10-19T09:09:34;14.60;;;7.32;;
58244;SDS011;44550;43.864;25.986;2022-10-19T09:13:40;9.15;;;6.50;;
58244;SDS011;44550;43.864;25.986;2022-10-19T09:18:00;24.98;;;7.43;;
58244;SDS011;44550;43.864;25.986;2022-10-19T09:22:03;9.05;;;6.25;;
58244;SDS011;44550;43.864;25.986;2022-10-19T09:26:09;10.32;;;7.40;;
58244;SDS011;44550;43.864;25.986;2022-10-19T09:30:14;8.63;;;6.38;;
58244;SDS011;44550;43.864;25.986;2022-10-19T09:34:19;8.40;;;5.80;;
58244;SDS011;44550;43.864;25.986;2022-10-19T09:38:29;11.52;;;6.93;;
58244;SDS011;44550;43.864;25.986;2022-10-19T09:42:29;13.23;;;6.47;;
58244;SDS011;44550;43.864;25.986;2022-10-19T09:46:36;11.77;;;6.55;;
58244;SDS011;44550;43.864;25.986;2022-10-19T09:50:44;9.50;;;7.82;;
58244;SDS011;44550;43.864;25.986;2022-10-19T09:54:57;11.77;;;7.22;;
58244;SDS011;44550;43.864;25.986;2022-10-19T09:58:59;14.43;;;6.57;;
58244;SDS011;44550;43.864;25.986;2022-10-19T10:02:59;12.75;;;7.75;;
58244;SDS011;44550;43.864;25.986;2022-10-19T10:06:59;9.05;;;6.78;;
58244;SDS011;44550;43.864;25.986;2022-10-19T10:11:06;12.55;;;7.85;;
58244;SDS011;44550;43.864;25.986;2022-10-19T10:15:12;10.18;;;6.57;;
58244;SDS011;44550;43.864;25.986;2022-10-19T10:19:15;10.25;;;6.47;;
58244;SDS011;44550;43.864;25.986;2022-10-19T10:23:21;12.15;;;6.00;;
58244;SDS011;44550;43.864;25.986;2022-10-19T10:27:31;17.58;;;6.13;;
58244;SDS011;44550;43.864;25.986;2022-10-19T10:31:32;9.73;;;6.30;;
58244;SDS011;44550;43.864;25.986;2022-10-19T10:35:33;9.15;;;6.10;;
58244;SDS011;44550;43.864;25.986;2022-10-19T10:39:38;7.82;;;4.72;;
58244;SDS011;44550;43.864;25.986;2022-10-19T10:43:48;8.20;;;5.70;;
58244;SDS011;44550;43.864;25.986;2022-10-19T10:47:53;13.23;;;5.68;;
58244;SDS011;44550;43.864;25.986;2022-10-19T10:51:55;7.45;;;5.72;;
58244;SDS011;44550;43.864;25.986;2022-10-19T10:55:58;7.82;;;4.82;;
58244;SDS011;44550;43.864;25.986;2022-10-19T11:00:03;15.80;;;5.45;;
58244;SDS011;44550;43.864;25.986;2022-10-19T11:04:09;7.75;;;5.15;;
58244;SDS011;44550;43.864;25.986;2022-10-19T11:08:14;7.32;;;5.55;;
58244;SDS011;44550;43.864;25.986;2022-10-19T11:12:30;12.27;;;6.10;;
58244;SDS011;44550;43.864;25.986;2022-10-19T11:16:37;9.68;;;6.70;;
58244;SDS011;44550;43.864;25.986;2022-10-19T11:20:41;11.30;;;7.75;;
58244;SDS011;44550;43.864;25.986;2022-10-19T11:24:50;6.80;;;4.35;;
58244;SDS011;44550;43.864;25.986;2022-10-19T11:29:00;5.43;;;3.80;;
58244;SDS011;44550;43.864;25.986;2022-10-19T11:33:12;5.38;;;4.13;;
58244;SDS011;44550;43.864;25.986;2022-10-19T11:37:22;5.88;;;4.20;;
58244;SDS011;44550;43.864;25.986;2022-10-19T11:41:28;26.48;;;7.47;;
58244;SDS011;44550;43.864;25.986;2022-10-19T11:45:40;17.38;;;8.05;;
58244;SDS011;44550;43.864;25.986;2022-10-19T11:49:53;11.68;;;4.60;;
58244;SDS011;44550;43.864;25.986;2022-10-19T11:54:04;5.07;;;3.78;;
58244;SDS011;44550;43.864;25.986;2022-10-19T11:58:20;11.38;;;6.20;;
58244;SDS011;44550;43.864;25.986;2022-10-19T12:02:48;18.67;;;4.93;;
58244;SDS011;44550;43.864;25.986;2022-10-19T12:07:07;6.35;;;5.18;;
58244;SDS011;44550;43.864;25.986;2022-10-19T12:11:40;10.00;;;4.70;;
58244;SDS011;44550;43.864;25.986;2022-10-19T12:15:52;11.43;;;4.47;;
58244;SDS011;44550;43.864;25.986;2022-10-19T12:19:54;9.98;;;5.85;;
58244;SDS011;44550;43.864;25.986;2022-10-19T12:24:01;7.97;;;5.15;;
58244;SDS011;44550;43.864;25.986;2022-10-19T12:28:04;8.93;;;5.82;;
58244;SDS011;44550;43.864;25.986;2022-10-19T12:32:04;15.43;;;7.72;;
58244;SDS011;44550;43.864;25.986;2022-10-19T12:36:14;11.32;;;5.63;;
58244;SDS011;44550;43.864;25.986;2022-10-19T12:40:24;6.57;;;5.35;;
58244;SDS011;44550;43.864;25.986;2022-10-19T12:44:35;10.95;;;7.00;;
58244;SDS011;44550;43.864;25.986;2022-10-19T12:53:32;17.65;;;5.40;;
58244;SDS011;44550;43.864;25.986;2022-10-19T14:25:39;13.90;;;7.90;;
58244;SDS011;44550;43.864;25.986;2022-10-19T14:30:43;14.77;;;5.32;;
58244;SDS011;44550;43.864;25.986;2022-10-19T14:35:22;7.07;;;3.80;;
58244;SDS011;44550;43.864;25.986;2022-10-19T14:40:22;10.63;;;4.20;;
58244;SDS011;44550;43.864;25.986;2022-10-19T14:44:34;6.65;;;4.00;;
58244;SDS011;44550;43.864;25.986;2022-10-19T14:48:37;9.70;;;7.07;;
58244;SDS011;44550;43.864;25.986;2022-10-19T14:52:38;42.58;;;38.25;;
58244;SDS011;44550;43.864;25.986;2022-10-19T14:56:48;42.20;;;35.25;;
58244;SDS011;44550;43.864;25.986;2022-10-19T15:00:53;59.22;;;52.95;;
58244;SDS011;44550;43.864;25.986;2022-10-19T15:04:54;86.78;;;58.33;;
58244;SDS011;44550;43.864;25.986;2022-10-19T15:08:56;67.55;;;54.72;;
58244;SDS011;44550;43.864;25.986;2022-10-19T15:13:00;42.00;;;19.90;;
58244;SDS011;44550;43.864;25.986;2022-10-19T15:17:05;113.20;;;63.83;;
58244;SDS011;44550;43.864;25.986;2022-10-19T15:21:20;31.48;;;22.77;;
58244;SDS011;44550;43.864;25.986;2022-10-19T15:25:24;13.27;;;5.03;;
58244;SDS011;44550;43.864;25.986;2022-10-19T15:29:32;14.43;;;4.88;;
58244;SDS011;44550;43.864;25.986;2022-10-19T15:33:41;16.83;;;6.72;;
58244;SDS011;44550;43.864;25.986;2022-10-19T15:37:43;40.30;;;10.63;;
58244;SDS011;44550;43.864;25.986;2022-10-19T15:42:21;32.17;;;6.80;;
58244;SDS011;44550;43.864;25.986;2022-10-19T15:46:34;15.77;;;5.70;;
58244;SDS011;44550;43.864;25.986;2022-10-19T15:50:58;28.67;;;11.20;;
58244;SDS011;44550;43.864;25.986;2022-10-19T15:54:58;19.75;;;7.25;;
58244;SDS011;44550;43.864;25.986;2022-10-19T15:58:59;18.27;;;6.78;;
58244;SDS011;44550;43.864;25.986;2022-10-19T16:03:03;19.75;;;6.57;;
58244;SDS011;44550;43.864;25.986;2022-10-19T16:07:05;23.63;;;8.10;;
58244;SDS011;44550;43.864;25.986;2022-10-19T16:11:09;34.40;;;11.02;;
58244;SDS011;44550;43.864;25.986;2022-10-19T16:15:13;19.83;;;8.25;;
58244;SDS011;44550;43.864;25.986;2022-10-19T16:19:18;21.48;;;9.45;;
58244;SDS011;44550;43.864;25.986;2022-10-19T16:23:20;19.15;;;8.45;;
58244;SDS011;44550;43.864;25.986;2022-10-19T16:27:20;24.98;;;10.48;;
58244;SDS011;44550;43.864;25.986;2022-10-19T16:31:20;25.33;;;8.70;;
58244;SDS011;44550;43.864;25.986;2022-10-19T16:35:21;31.88;;;16.25;;
58244;SDS011;44550;43.864;25.986;2022-10-19T16:43:22;28.58;;;13.02;;
58244;SDS011;44550;43.864;25.986;2022-10-19T16:47:22;38.45;;;21.33;;
58244;SDS011;44550;43.864;25.986;2022-10-19T16:51:26;26.98;;;12.68;;
58244;SDS011;44550;43.864;25.986;2022-10-19T16:55:36;30.42;;;13.10;;
58244;SDS011;44550;43.864;25.986;2022-10-19T16:59:49;34.35;;;17.13;;
58244;SDS011;44550;43.864;25.986;2022-10-19T17:03:54;32.67;;;12.43;;
58244;SDS011;44550;43.864;25.986;2022-10-19T17:07:54;26.13;;;13.93;;
58244;SDS011;44550;43.864;25.986;2022-10-19T17:11:55;33.08;;;14.13;;
58244;SDS011;44550;43.864;25.986;2022-10-19T17:15:58;28.40;;;13.90;;
58244;SDS011;44550;43.864;25.986;2022-10-19T17:20:21;38.92;;;13.70;;
58244;SDS011;44550;43.864;25.986;2022-10-19T17:24:23;32.05;;;15.38;;
58244;SDS011;44550;43.864;25.986;2022-10-19T17:28:26;23.50;;;14.32;;
58244;SDS011;44550;43.864;25.986;2022-10-19T17:32:28;25.27;;;14.90;;
58244;SDS011;44550;43.864;25.986;2022-10-19T17:36:29;29.40;;;17.27;;
58244;SDS011;44550;43.864;25.986;2022-10-19T17:40:30;22.50;;;11.85;;
58244;SDS011;44550;43.864;25.986;2022-10-19T17:44:33;29.38;;;16.45;;
58244;SDS011;44550;43.864;25.986;2022-10-19T17:48:34;38.65;;;21.10;;
58244;SDS011;44550;43.864;25.986;2022-10-19T17:52:36;42.92;;;20.65;;
58244;SDS011;44550;43.864;25.986;2022-10-19T17:56:36;41.38;;;19.10;;
58244;SDS011;44550;43.864;25.986;2022-10-19T18:00:39;40.30;;;23.63;;
58244;SDS011;44550;43.864;25.986;2022-10-19T18:04:39;36.58;;;18.75;;
58244;SDS011;44550;43.864;25.986;2022-10-19T18:08:53;38.90;;;20.90;;
58244;SDS011;44550;43.864;25.986;2022-10-19T18:12:59;38.63;;;20.20;;
58244;SDS011;44550;43.864;25.986;2022-10-19T18:17:05;33.35;;;18.20;;
58244;SDS011;44550;43.864;25.986;2022-10-19T18:21:07;33.05;;;19.48;;
58244;SDS011;44550;43.864;25.986;2022-10-19T18:25:14;32.17;;;18.40;;
58244;SDS011;44550;43.864;25.986;2022-10-19T18:29:24;48.60;;;25.80;;
58244;SDS011;44550;43.864;25.986;2022-10-19T18:33:29;68.78;;;32.85;;
58244;SDS011;44550;43.864;25.986;2022-10-19T18:37:34;62.78;;;36.42;;
58244;SDS011;44550;43.864;25.986;2022-10-19T18:41:39;61.58;;;28.83;;
58244;SDS011;44550;43.864;25.986;2022-10-19T18:45:53;35.42;;;18.55;;
58244;SDS011;44550;43.864;25.986;2022-10-19T18:49:56;41.33;;;22.38;;
58244;SDS011;44550;43.864;25.986;2022-10-19T18:53:58;39.58;;;23.25;;
58244;SDS011;44550;43.864;25.986;2022-10-19T18:58:01;39.05;;;20.58;;
58244;SDS011;44550;43.864;25.986;2022-10-19T19:02:00;46.22;;;26.08;;
58244;SDS011;44550;43.864;25.986;2022-10-19T19:06:04;34.50;;;20.92;;
58244;SDS011;44550;43.864;25.986;2022-10-19T19:10:07;58.63;;;31.77;;
58244;SDS011;44550;43.864;25.986;2022-10-19T19:14:10;73.47;;;47.15;;
58244;SDS011;44550;43.864;25.986;2022-10-19T19:18:12;25.38;;;15.38;;
58244;SDS011;44550;43.864;25.986;2022-10-19T19:22:14;31.92;;;17.77;;
58244;SDS011;44550;43.864;25.986;2022-10-19T19:26:16;21.33;;;15.30;;
58244;SDS011;44550;43.864;25.986;2022-10-19T19:30:17;24.13;;;12.50;;
58244;SDS011;44550;43.864;25.986;2022-10-19T19:34:16;21.77;;;11.13;;
58244;SDS011;44550;43.864;25.986;2022-10-19T19:38:35;29.60;;;12.27;;
58244;SDS011;44550;43.864;25.986;2022-10-19T19:43:02;20.88;;;11.15;;
58244;SDS011;44550;43.864;25.986;2022-10-19T19:47:13;22.65;;;12.65;;
58244;SDS011;44550;43.864;25.986;2022-10-19T19:51:24;25.75;;;13.05;;
58244;SDS011;44550;43.864;25.986;2022-10-19T19:55:31;18.38;;;11.90;;
58244;SDS011;44550;43.864;25.986;2022-10-19T19:59:37;19.90;;;11.73;;
58244;SDS011;44550;43.864;25.986;2022-10-19T20:03:42;23.73;;;11.10;;
58244;SDS011;44550;43.864;25.986;2022-10-19T20:07:46;62.80;;;42.13;;
58244;SDS011;44550;43.864;25.986;2022-10-19T20:11:48;23.52;;;14.35;;
58244;SDS011;44550;43.864;25.986;2022-10-19T20:16:06;27.77;;;15.73;;
58244;SDS011;44550;43.864;25.986;2022-10-19T20:20:07;26.23;;;14.75;;
58244;SDS011;44550;43.864;25.986;2022-10-19T20:24:08;24.58;;;15.32;;
58244;SDS011;44550;43.864;25.986;2022-10-19T20:28:10;30.85;;;17.52;;
58244;SDS011;44550;43.864;25.986;2022-10-19T20:32:09;26.23;;;16.38;;
58244;SDS011;44550;43.864;25.986;2022-10-19T20:36:10;38.17;;;16.08;;
58244;SDS011;44550;43.864;25.986;2022-10-19T20:40:11;25.38;;;14.40;;
58244;SDS011;44550;43.864;25.986;2022-10-19T20:44:13;24.02;;;14.00;;
58244;SDS011;44550;43.864;25.986;2022-10-19T20:48:16;28.75;;;16.60;;
58244;SDS011;44550;43.864;25.986;2022-10-19T20:52:15;29.92;;;17.38;;
58244;SDS011;44550;43.864;25.986;2022-10-19T20:56:16;32.15;;;16.83;;
58244;SDS011;44550;43.864;25.986;2022-10-19T21:00:20;32.58;;;16.98;;
58244;SDS011;44550;43.864;25.986;2022-10-19T21:04:20;27.35;;;16.38;;
58244;SDS011;44550;43.864;25.986;2022-10-19T21:08:20;23.55;;;14.35;;
58244;SDS011;44550;43.864;25.986;2022-10-19T21:12:20;28.83;;;16.20;;
58244;SDS011;44550;43.864;25.986;2022-10-19T21:16:22;20.15;;;14.43;;
58244;SDS011;44550;43.864;25.986;2022-10-19T21:20:26;18.42;;;11.77;;
58244;SDS011;44550;43.864;25.986;2022-10-19T21:24:25;22.52;;;15.55;;
58244;SDS011;44550;43.864;25.986;2022-10-19T21:28:30;26.52;;;14.00;;
58244;SDS011;44550;43.864;25.986;2022-10-19T21:32:46;22.00;;;15.82;;
58244;SDS011;44550;43.864;25.986;2022-10-19T21:36:48;24.40;;;16.25;;
58244;SDS011;44550;43.864;25.986;2022-10-19T21:40:48;19.02;;;12.23;;
58244;SDS011;44550;43.864;25.986;2022-10-19T21:44:48;19.70;;;11.27;;
58244;SDS011;44550;43.864;25.986;2022-10-19T21:48:59;18.58;;;10.75;;
58244;SDS011;44550;43.864;25.986;2022-10-19T21:52:58;18.50;;;10.95;;
58244;SDS011;44550;43.864;25.986;2022-10-19T21:56:58;25.27;;;14.55;;
58244;SDS011;44550;43.864;25.986;2022-10-19T22:01:02;26.10;;;18.83;;
58244;SDS011;44550;43.864;25.986;2022-10-19T22:05:04;33.28;;;21.33;;
58244;SDS011;44550;43.864;25.986;2022-10-19T22:09:05;21.85;;;15.13;;
58244;SDS011;44550;43.864;25.986;2022-10-19T22:13:06;20.30;;;15.00;;
58244;SDS011;44550;43.864;25.986;2022-10-19T22:17:06;27.10;;;19.38;;
58244;SDS011;44550;43.864;25.986;2022-10-19T22:21:08;28.63;;;18.42;;
58244;SDS011;44550;43.864;25.986;2022-10-19T22:25:10;15.13;;;12.70;;
58244;SDS011;44550;43.864;25.986;2022-10-19T22:29:10;20.65;;;13.63;;
58244;SDS011;44550;43.864;25.986;2022-10-19T22:33:23;16.38;;;11.40;;
58244;SDS011;44550;43.864;25.986;2022-10-19T22:37:25;19.30;;;14.82;;
58244;SDS011;44550;43.864;25.986;2022-10-19T22:41:25;25.05;;;13.63;;
58244;SDS011;44550;43.864;25.986;2022-10-19T22:45:25;13.15;;;10.65;;
58244;SDS011;44550;43.864;25.986;2022-10-19T22:49:25;18.05;;;11.18;;
58244;SDS011;44550;43.864;25.986;2022-10-19T22:53:27;15.82;;;7.80;;
58244;SDS011;44550;43.864;25.986;2022-10-19T22:57:26;11.52;;;5.50;;
58244;SDS011;44550;43.864;25.986;2022-10-19T23:01:25;14.98;;;5.47;;
58244;SDS011;44550;43.864;25.986;2022-10-19T23:05:26;8.10;;;5.35;;
58244;SDS011;44550;43.864;25.986;2022-10-19T23:13:26;11.15;;;4.68;;
58244;SDS011;44550;43.864;25.986;2022-10-19T23:17:26;6.72;;;5.45;;
58244;SDS011;44550;43.864;25.986;2022-10-19T23:21:25;15.77;;;5.63;;
58244;SDS011;44550;43.864;25.986;2022-10-19T23:25:27;11.02;;;6.15;;
58244;SDS011;44550;43.864;25.986;2022-10-19T23:29:31;11.65;;;6.85;;
58244;SDS011;44550;43.864;25.986;2022-10-19T23:33:31;14.80;;;5.82;;
58244;SDS011;44550;43.864;25.986;2022-10-19T23:37:31;9.63;;;6.05;;
58244;SDS011;44550;43.864;25.986;2022-10-19T23:41:33;9.60;;;5.43;;
58244;SDS011;44550;43.864;25.986;2022-10-19T23:45:33;9.25;;;6.13;;
58244;SDS011;44550;43.864;25.986;2022-10-19T23:49:33;11.35;;;5.95;;
58244;SDS011;44550;43.864;25.986;2022-10-19T23:53:33;9.90;;;6.00;;
58244;SDS011;44550;43.864;25.986;2022-10-19T23:57:39;10.27;;;5.65;;
